Renato Pacheco

Scout - Flamengo
3 Apr 2027
Samstag
Verarbeitung

Persönlichkeit

Anpassungsfähigkeit (6) Ehrgeiz (11) Kontroverse (12) Loyalität (8) Druck (12) Professionalität (6) Fairness (3) Temperament (12)

Profil

Trainerstil Demokratisch
Lizenz Kontinentale B
Entschlossenheit 14
Menschenführung 6
Motivation 15
Disziplin 7
Arbeitszufriedenheit
100%
Ermüdung
0%
Rolle Scout
Gehalt 68.2K p/W
Vertrag 14.03.2028

Leistung

Verhalten Gut
Trainingseffektivität
45%
Spielerentwicklung
40%
Verletzungsprävention
60%
Taktische Umsetzung
45%

Letzte Ereignisse

Nahm an einer Scouting-Besprechung teil jetzt
Empfahl ein Transferziel jetzt
Spieler begutachtet jetzt
Spieler begutachtet jetzt
Spieler begutachtet 7T her
Spieler begutachtet 7T her
Spieler begutachtet 7T her
Spieler begutachtet 7T her

Aktuell beobachtet

214
Spieler Verein Status Fähigkeit Vertrauen Beobachtet Zuletzt beobachtet Letzte Stimme
Matthijs de Ligt Manchester United Aktiv 167 / 155 40% 3 01.04.2027 -
Leonardo Lelo Braga Aktiv 134 / 131 40% 6 01.04.2027 -
Willian Pacho Paris Saint-Germain Aktiv 170 / 174 40% 1 01.04.2027 -
Alexis Mac Allister Liverpool Aktiv 162 / 149 40% 5 31.03.2027 -
Wesley Fofana Chelsea Aktiv 168 / 154 40% 4 31.03.2027 -
Enzo Barrenechea Benfica Aktiv 148 / 140 40% 4 30.03.2027 -
Gabriel Gudmundsson Leeds United Aktiv 142 / 145 40% 3 30.03.2027 -
Víctor Gómez Braga Aktiv 143 / 148 40% 10 30.03.2027 -
Alberto Costa Porto Aktiv 147 / 144 40% 4 30.03.2027 -
Kevin Fulham Aktiv 145 / 151 40% 2 30.03.2027 -
Loum Tchaouna Coventry City Aktiv 146 / 149 40% 2 30.03.2027 -
Pau Víctor Braga Aktiv 134 / 123 40% 5 28.03.2027 -
Khvicha Kvaratskhelia Paris Saint-Germain Aktiv 171 / 150 40% 1 28.03.2027 -
Sorriso Famalicao Aktiv 131 / 139 40% 4 27.03.2027 -
Gabri Veiga Porto Aktiv 155 / 145 40% 1 27.03.2027 -
Chiquinho Alverca Aktiv 131 / 112 40% 3 26.03.2027 -
Rodrigo Zalazar Sporting CP Aktiv 154 / 139 40% 6 26.03.2027 -
Geny Sporting CP Aktiv 149 / 140 40% 1 25.03.2027 -
Ander Barrenetxea Real Sociedad Aktiv 152 / 133 40% 1 25.03.2027 -
Maximiliano Araújo Sporting CP Aktiv 144 / 135 40% 5 24.03.2027 -
Cesar Corona Veracruz Aktiv 142 / 134 40% 3 24.03.2027 -
Brian Rodríguez Club America Aktiv 134 / 111 40% 2 24.03.2027 -
Vinícius Lopes Santa Clara Aktiv 127 / 105 40% 3 22.03.2027 -
Óscar Mingueza Crystal Palace Aktiv 154 / 141 40% 4 21.03.2027 -
Robin Risser RC Lens Aktiv 143 / 129 40% 3 21.03.2027 -
Yehvann Diouf OGC Nice Aktiv 143 / 126 40% 5 21.03.2027 -
Robin Roefs Sunderland Aktiv 147 / 133 40% 2 21.03.2027 -
Boubacar Kamara Aston Villa Aktiv 161 / 179 40% 1 21.03.2027 -
Saša Lukić Ipswich Town Aktiv 141 / 144 40% 1 21.03.2027 -
Amadou Onana Aston Villa Aktiv 149 / 141 40% 6 19.03.2027 -
Radek Vítek Middlesbrough Aktiv 132 / 153 40% 4 19.03.2027 -
James Trafford Leeds United Aktiv 145 / 131 40% 3 19.03.2027 -
Ryan Gravenberch Liverpool Aktiv 163 / 163 40% 1 19.03.2027 -
Tino Livramento Newcastle United Aktiv 150 / 175 40% 1 19.03.2027 -
Exequiel Palacios Ipswich Town Aktiv 160 / 160 40% 5 17.03.2027 -
Levi Colwill Chelsea Aktiv 163 / 167 40% 2 17.03.2027 -
Sven Botman Newcastle United Aktiv 156 / 141 40% 1 17.03.2027 -
Alan Varela Porto Aktiv 145 / 162 40% 2 16.03.2027 -
Toni Tamarit Alverca Aktiv 111 / 127 40% 1 16.03.2027 -
Iván Fresneda Sporting CP Aktiv 145 / 155 40% 6 14.03.2027 -
Fabián Paris Saint-Germain Aktiv 168 / 148 40% 1 13.03.2027 -
Olivier Boscagli Brighton Aktiv 150 / 132 40% 1 12.03.2027 -
Erik Lira Cruz Azul Aktiv 134 / 119 40% 1 10.03.2027 -
Pedro Porro Tottenham Aktiv 142 / 162 40% 5 09.03.2027 -
Zeno Debast Sporting CP Aktiv 146 / 131 40% 2 09.03.2027 -
Brandon Aguilera Rio Ave Aktiv 113 / 132 40% 1 09.03.2027 -
Yanis Begraoui Estoril Praia Aktiv 140 / 138 40% 2 08.03.2027 -
Abraham Marcus Estrela da Amadora Aktiv 125 / 130 40% 3 08.03.2027 -
Ricard Sánchez Estoril Praia Aktiv 127 / 112 40% 1 08.03.2027 -
Hugo Pérez Torreense Aktiv 126 / 126 40% 1 08.03.2027 -
Mason Greenwood Fenerbahce Aktiv 161 / 138 40% 2 07.03.2027 -
Makan Aïko Tondela Aktiv 117 / 123 40% 2 07.03.2027 -
Yehor Yarmoliuk Brentford Aktiv 144 / 140 40% 1 06.03.2027 -
Jakub Stolarczyk Leicester City Aktiv 142 / 137 40% 5 05.03.2027 -
Edoardo Corvi Parma Aktiv 133 / 116 40% 1 05.03.2027 -
Elia Caprile Cagliari Aktiv 143 / 161 40% 1 05.03.2027 -
Nordi Mukiele Sunderland Aktiv 150 / 142 40% 2 03.03.2027 -
Jan Bednarek Porto Aktiv 150 / 157 40% 1 03.03.2027 -
Adrien Truffert Bournemouth Aktiv 152 / 152 40% 3 02.03.2027 -
Jaden Philogene Ipswich Town Aktiv 135 / 135 40% 2 02.03.2027 -
Carlos Augusto Inter Aktiv 158 / 140 40% 1 02.03.2027 -
Reiss Nelson AC Milan Aktiv 146 / 148 40% 1 02.03.2027 -
Cezary Miszta Rio Ave Aktiv 128 / 150 40% 3 27.02.2027 -
Gabriel Brazão Santos Aktiv 134 / 137 40% 1 27.02.2027 -
Julio Enciso Ipswich Town Aktiv 140 / 130 40% 2 26.02.2027 -
Facundo Torres Shakhtar Aktiv 137 / 137 40% 1 26.02.2027 -
Ole Pohlmann Rio Ave Aktiv 117 / 116 40% 1 26.02.2027 -
Luiz Henrique Zenit Aktiv 146 / 130 40% 3 23.02.2027 -
Bernardo Fontes Braga Aktiv 129 / 116 40% 3 22.02.2027 -
Mads Hermansen West Ham United Aktiv 138 / 128 40% 1 22.02.2027 -
Lorenzo Palmisani Frosinone Aktiv 128 / 137 40% 2 19.02.2027 -
Rico Lewis Manchester City Aktiv 151 / 137 40% 3 18.02.2027 -
Martín Zubimendi Arsenal Aktiv 169 / 145 40% 2 17.02.2027 -
Jurriën Timber Arsenal Aktiv 165 / 172 40% 1 17.02.2027 -
Jake O'Brien Everton Aktiv 147 / 148 40% 3 14.02.2027 -
Gianluigi Donnarumma Manchester City Aktiv 172 / 157 40% 2 09.02.2027 -
Lazar Carević Famalicao Aktiv 126 / 136 40% 2 09.02.2027 -
Xavi Simons Tottenham Aktiv 158 / 164 40% 1 09.02.2027 -
Carl Rushworth Coventry City Aktiv 135 / 129 40% 2 08.02.2027 -
Kostantis Tzolakis Hull City Aktiv 134 / 145 40% 2 08.02.2027 -
Heorhii Sudakov Benfica Aktiv 152 / 147 40% 1 07.02.2027 -
Gonçalo Inácio Sporting CP Aktiv 156 / 162 40% 3 05.02.2027 -
Yuri Alberto Corinthians Abgelehnt 138 / 151 40% 1 04.02.2027 Mehr Infos nötig
Mario Dorgeles Braga Aktiv 129 / 127 40% 1 03.02.2027 -
Haissem Hassan Bloemfontein Celtic Aktiv 129 / 133 40% 1 03.02.2027 -
Grégoire Coudert Burnley Aktiv 133 / 114 40% 1 31.01.2027 -
Iñaki Peña Panathinaikos Aktiv 147 / 130 40% 1 31.01.2027 -
Sam Tickle Wigan Athletic Aktiv 132 / 125 40% 2 27.01.2027 -
Diogo Costa Paris Saint-Germain Aktiv 156 / 169 40% 2 27.01.2027 -
Samuel Soares Benfica Aktiv 132 / 118 40% 1 25.01.2027 -
Michael Cooper Sheffield United Aktiv 132 / 136 40% 3 23.01.2027 -
Axel Alderweireld KV Oostende Aktiv 148 / 141 40% 1 22.01.2027 -
Senne Lammens Manchester United Aktiv 154 / 147 40% 1 19.01.2027 -
Lucas Chevalier Paris Saint-Germain Aktiv 161 / 173 40% 1 19.01.2027 -
Bart Verbruggen Brighton Aktiv 156 / 148 40% 1 19.01.2027 -
Hugo Souza Corinthians Aktiv 136 / 150 40% 3 17.01.2027 -
Marco Carnesecchi Atalanta Aktiv 149 / 167 40% 1 16.01.2027 -
Mile Svilar AS Roma Aktiv 162 / 161 40% 1 09.01.2027 -
Matthieu Epolo Standard Liege Aktiv 120 / 124 40% 1 04.01.2027 -
Alan Varela Porto Verloren 148 / 153 40% 3 28.12.2026 -
Tariq Lamptey Queens Park Rangers Verloren 132 / 144 40% 1 28.12.2026 -
Nuno Moreira Vasco da Gama Aktiv 125 / 133 79% 1 21.12.2026 Befürworten
George Hirst Stoke City Aktiv 132 / 139 40% 2 28.11.2026 -
Georginio Rutter Brighton Aktiv 152 / 132 40% 3 28.11.2026 -
Yuri Alberto Corinthians Verloren 141 / 131 40% 6 27.11.2026 Mehr Infos nötig
Henrique Araújo Casa Pia Aktiv 119 / 106 40% 1 27.11.2026 -
Lucas Duarte Felgueiras Aktiv 105 / 108 40% 3 26.11.2026 -
Largie Ramazani Leeds United Aktiv 139 / 139 40% 1 26.11.2026 -
Yousef Salech Cardiff City Aktiv 122 / 138 40% 1 26.11.2026 -
Barış Alper Yılmaz Galatasaray Aktiv 140 / 135 40% 5 25.11.2026 -
Nico Paz Como Aktiv 163 / 151 40% 6 25.11.2026 -
Dominic Calvert-Lewin Leeds United Aktiv 140 / 147 40% 4 25.11.2026 -
Borja Mayoral Getafe Aktiv 138 / 144 40% 3 24.11.2026 -
Victor Froholdt Porto Aktiv 144 / 168 40% 4 23.11.2026 -
Frenkie de Jong Barcelona Aktiv 168 / 173 40% 1 23.11.2026 -
Jakub Kiwior Porto Aktiv 151 / 156 40% 2 22.11.2026 -
Johnny Cardoso Atlético Madrid Aktiv 147 / 160 40% 2 22.11.2026 -
Tyler Adams Bournemouth Aktiv 155 / 155 40% 1 22.11.2026 -
Mateo Retegui Al-Qadisiyah Aktiv 150 / 170 40% 4 21.11.2026 -
Tomás Araújo Benfica Aktiv 146 / 144 40% 2 21.11.2026 -
Isaac Romero Sevilla Aktiv 148 / 141 40% 1 21.11.2026 -
Alexis Vega Toluca Aktiv 154 / 155 40% 4 19.11.2026 -
Taty Castellanos West Ham United Aktiv 150 / 146 40% 1 19.11.2026 -
Conor Gallagher Tottenham Aktiv 157 / 142 40% 1 19.11.2026 -
Ismaël Bennacer Palmeiras Aktiv 143 / 149 40% 1 19.11.2026 -
Nico González Newcastle United Aktiv 152 / 144 40% 1 19.11.2026 -
Santiago Castro AS Roma Aktiv 153 / 163 40% 5 17.11.2026 -
Jean-Luc Morin Tours Aktiv 144 / 135 40% 1 17.11.2026 -
Jean-Philippe Mateta Crystal Palace Aktiv 152 / 132 40% 4 16.11.2026 -
Jesús Areso Athletic Bilbao Aktiv 144 / 141 40% 1 15.11.2026 -
Azzedine Ounahi Girona Aktiv 134 / 132 40% 1 15.11.2026 -
Maxence Lacroix Chelsea Aktiv 151 / 142 40% 1 15.11.2026 -
Vangelis Pavlidis Benfica Aktiv 151 / 142 40% 6 14.11.2026 -
Evanilson Bournemouth Aktiv 150 / 153 40% 2 14.11.2026 -
Omar El Hilali Espanyol Aktiv 152 / 164 40% 1 12.11.2026 -
Elliot Anderson Manchester City Aktiv 159 / 156 40% 2 09.11.2026 -
Fotis Ioannidis Sporting CP Aktiv 132 / 148 40% 2 07.11.2026 -
Percy Erasmus SuperSport United Aktiv 129 / 112 40% 2 05.11.2026 -
Germán Valera Elche Aktiv 129 / 148 40% 1 05.11.2026 -
Dodi Lukébakio Benfica Aktiv 139 / 145 40% 4 03.11.2026 -
Jason Januzaj Mouscron Verloren 140 / 135 40% 4 02.11.2026 -
Tammy Abraham Aston Villa Aktiv 146 / 150 40% 5 02.11.2026 -
Thiago Brentford Aktiv 147 / 137 40% 1 01.11.2026 -
Gianluca Scamacca Atalanta Aktiv 145 / 158 40% 6 31.10.2026 -
Ez Abde Betis Aktiv 143 / 165 40% 1 30.10.2026 -
Igor Paixão Olympique de Marseille Aktiv 155 / 146 40% 1 30.10.2026 -
Mahmoud Al Bloushi Al Shabab Aktiv 153 / 132 40% 5 29.10.2026 -
Dominic Solanke Tottenham Aktiv 147 / 148 40% 3 29.10.2026 -
Federico Chiesa Liverpool Aktiv 149 / 153 40% 3 28.10.2026 -
Marcus Rashford Manchester United Aktiv 151 / 158 40% 2 28.10.2026 -
Figueiredo Alverca Aktiv 132 / 112 40% 1 28.10.2026 -
Fran García Betis Aktiv 149 / 161 40% 1 27.10.2026 -
Adnan Courtois KV Oostende Aktiv 116 / 139 40% 1 27.10.2026 -
Tani Oluwaseyi Villarreal Aktiv 145 / 153 40% 3 26.10.2026 -
Luis Suárez Sporting CP Aktiv 161 / 137 40% 4 22.10.2026 -
Florentino Luís Ipswich Town Aktiv 147 / 144 40% 1 22.10.2026 -
Gavi Barcelona Aktiv 158 / 179 40% 1 22.10.2026 -
Liam Delap Nottingham Forest Aktiv 142 / 154 40% 1 22.10.2026 -
Victor Osimhen Galatasaray Aktiv 168 / 148 40% 4 21.10.2026 -
Jonathan Dubasin Osasuna Aktiv 134 / 149 40% 1 21.10.2026 -
Camilo Durán Bloemfontein Celtic Aktiv 127 / 136 40% 2 19.10.2026 -
Karim Adeyemi Barcelona Aktiv 147 / 154 40% 2 15.10.2026 -
Cesar Corona Veracruz Verloren 137 / 146 40% 1 14.10.2026 -
Kevin Schade Brentford Aktiv 143 / 162 40% 2 13.10.2026 -
Giacomo Raspadori Atalanta Aktiv 149 / 134 40% 3 13.10.2026 -
Steven Bergwijn Al-Ittihad Aktiv 144 / 133 40% 6 10.10.2026 -
Takefusa Kubo Real Sociedad Aktiv 146 / 170 40% 1 09.10.2026 -
Iván Martín Racing Club Aktiv 144 / 146 40% 1 08.10.2026 -
Igor Jesus Nottingham Forest Aktiv 140 / 139 40% 1 07.10.2026 -
Rasmus Højlund Napoli Aktiv 153 / 163 40% 1 03.10.2026 -
José Manuel López Palmeiras Aktiv 139 / 147 40% 1 30.09.2026 -
Zé Leite Oliveirense Aktiv 123 / 133 40% 1 30.09.2026 -
Brennan Johnson Everton Aktiv 135 / 144 40% 3 29.09.2026 -
Alejandro Piedrahita Deportivo Pereira Aktiv 121 / 117 40% 1 27.09.2026 -
Joe Gomez Liverpool Aktiv 150 / 150 40% 1 25.09.2026 -
Nathan Collins Brentford Aktiv 139 / 129 40% 1 24.09.2026 -
Tadeo Allende Inter Miami CF Aktiv 118 / 133 40% 1 24.09.2026 -
André Wolverhampton Aktiv 140 / 148 40% 1 21.09.2026 -
Leandro Barreiro Benfica Aktiv 137 / 127 40% 1 21.09.2026 -
Yoan Bonny Inter Aktiv 148 / 145 40% 3 19.09.2026 -
Nikola Vlašić Torino Aktiv 137 / 153 40% 5 18.09.2026 -
Michael Kayode Brentford Aktiv 147 / 167 40% 1 18.09.2026 -
Lewis Hall Newcastle United Aktiv 146 / 157 40% 1 16.09.2026 -
Ao Tanaka Leeds United Aktiv 144 / 143 40% 1 16.09.2026 -
Eduardo Quaresma Sporting CP Aktiv 146 / 151 40% 1 16.09.2026 -
Benjamin Šeško Manchester United Aktiv 148 / 169 40% 1 13.09.2026 -
Joshua Zirkzee Manchester United Aktiv 138 / 147 40% 1 13.09.2026 -
Neco Williams Nottingham Forest Aktiv 142 / 142 40% 1 11.09.2026 -
Mathys Tel Tottenham Aktiv 135 / 126 40% 1 09.09.2026 -
Donyell Malen AS Roma Aktiv 156 / 139 40% 1 09.09.2026 -
Richard Ríos Benfica Aktiv 142 / 136 40% 1 08.09.2026 -
Roberto Fernández Braga Aktiv 142 / 141 40% 1 08.09.2026 -
Alexey Batrakov Galatasaray Aktiv 133 / 130 40% 4 06.09.2026 -
Tasos Douvikas Como Aktiv 135 / 125 40% 1 06.09.2026 -
Santiago Giménez AC Milan Aktiv 140 / 148 40% 3 02.09.2026 -
Luca Koleosho Paris FC Aktiv 120 / 151 40% 1 02.09.2026 -
Artem Dovbyk AS Roma Aktiv 135 / 143 40% 1 01.09.2026 -
Xavier Biscayzacú Defensor Sporting Aktiv 122 / 130 40% 1 30.08.2026 -
Julián Quiñones Al-Qadisiyah Aktiv 147 / 151 40% 3 24.08.2026 -
Kauã Elias Shakhtar Aktiv 127 / 115 40% 1 24.08.2026 -
Matías Fernández-Pardo LOSC Lille Aktiv 137 / 138 40% 1 18.08.2026 -
Ayoub Oufkir AZ Aktiv 121 / 140 40% 1 15.08.2026 -
Rayan Bournemouth Aktiv 126 / 138 40% 1 15.08.2026 -
Eliezer Mayenda Stade Rennais Aktiv 132 / 135 40% 1 14.08.2026 -
Moise Kean Fiorentina Aktiv 153 / 162 40% 2 13.08.2026 -
Stefanos Tzimas Brighton Aktiv 128 / 135 40% 2 11.08.2026 -
Vitor Roque Palmeiras Aktiv 134 / 136 40% 2 11.08.2026 -
Sergi Altimira Sporting CP Aktiv 145 / 138 40% 1 05.08.2026 -
Gonçalo Nogueira Vitoria Guimaraes Aktiv 124 / 110 40% 1 05.08.2026 -
Leo Castledine Middlesbrough Aktiv 119 / 124 40% 1 05.08.2026 -
Gorka Guruzeta Athletic Bilbao Aktiv 141 / 135 40% 1 03.08.2026 -
Ibrahima Ba Sporting CP Aktiv 122 / 134 40% 1 02.08.2026 -
Rodrigo Pinheiro Famalicao Aktiv 125 / 124 40% 1 02.08.2026 -
Christian Pulisic AC Milan Aktiv 160 / 174 40% 1 01.08.2026 -